Time;durP1;ratioP1;P1;durP2;ratioP2;P2;SDS_P1;SDS_P2;PMS_P1;PMS_P2;Temp;Humidity;BMP_temperature;BMP_pressure;BME280_temperature;BME280_humidity;BME280_pressure;Samples;Min_cycle;Max_cycle;Signal;HPM_P1;HPM_P2
2023/07/23 00:01:29;;;;;;;9.05;5.05;;;;;;;;;;5111504;28;20106;-61
2023/07/23 00:03:54;;;;;;;9.90;4.13;;;;;;;;;;5101233;28;20363;-61
2023/07/23 00:06:19;;;;;;;7.63;4.83;;;;;;;;;;5115283;28;20277;-61
2023/07/23 00:08:45;;;;;;;7.50;4.40;;;;;;;;;;5112090;28;20273;-61
2023/07/23 00:11:10;;;;;;;7.03;4.77;;;;;;;;;;5105001;28;20333;-62
2023/07/23 00:13:35;;;;;;;8.65;5.15;;;;;;;;;;5113188;28;20266;-62
2023/07/23 00:16:00;;;;;;;7.85;4.40;;;;;;;;;;5114614;28;20054;-61
2023/07/23 00:18:26;;;;;;;7.77;5.20;;;;;;;;;;5114348;28;20494;-61
2023/07/23 00:20:51;;;;;;;6.63;4.87;;;;;;;;;;5104550;28;20324;-61
2023/07/23 00:23:16;;;;;;;6.30;4.70;;;;;;;;;;5111645;28;20284;-61
2023/07/23 00:25:42;;;;;;;8.75;5.22;;;;;;;;;;5114955;28;20301;-61
2023/07/23 00:28:07;;;;;;;7.68;4.68;;;;;;;;;;5114777;28;21124;-61
2023/07/23 00:30:32;;;;;;;7.03;4.38;;;;;;;;;;5115172;28;20016;-61
2023/07/23 00:32:57;;;;;;;15.13;4.83;;;;;;;;;;5114755;28;20032;-61
2023/07/23 00:35:23;;;;;;;9.63;4.73;;;;;;;;;;5105353;28;20770;-61
2023/07/23 00:37:48;;;;;;;6.63;4.03;;;;;;;;;;5110850;28;20620;-61
2023/07/23 00:40:13;;;;;;;9.02;5.05;;;;;;;;;;5109743;28;20625;-61
2023/07/23 00:42:39;;;;;;;6.20;4.25;;;;;;;;;;5109981;28;20023;-61
2023/07/23 00:45:04;;;;;;;6.73;4.80;;;;;;;;;;5114826;28;20036;-61
2023/07/23 00:47:29;;;;;;;7.18;4.75;;;;;;;;;;5113473;28;20309;-61
2023/07/23 00:49:55;;;;;;;6.15;4.43;;;;;;;;;;5114967;28;20036;-61
2023/07/23 00:52:20;;;;;;;11.70;4.93;;;;;;;;;;5113708;28;20030;-61
2023/07/23 00:54:45;;;;;;;7.78;4.50;;;;;;;;;;5114725;28;20524;-61
2023/07/23 00:57:11;;;;;;;6.40;5.22;;;;;;;;;;5114021;28;20378;-61
2023/07/23 00:59:37;;;;;;;7.75;6.00;;;;;;;;;;5114881;28;20451;-61
2023/07/23 01:02:02;;;;;;;8.43;5.47;;;;;;;;;;5112666;28;20020;-61
2023/07/23 01:04:27;;;;;;;6.82;4.95;;;;;;;;;;5094624;28;20047;-61
2023/07/23 01:06:54;;;;;;;7.45;4.45;;;;;;;;;;5094583;28;20057;-61
2023/07/23 01:09:20;;;;;;;7.65;5.20;;;;;;;;;;5099124;28;20030;-61
2023/07/23 01:11:46;;;;;;;7.65;4.78;;;;;;;;;;5094136;28;20040;-62
2023/07/23 01:14:12;;;;;;;6.22;5.07;;;;;;;;;;5106982;28;20048;-61
2023/07/23 01:16:37;;;;;;;11.83;6.60;;;;;;;;;;5107549;28;20108;-61
2023/07/23 01:19:03;;;;;;;7.18;5.00;;;;;;;;;;5113935;28;20318;-61
2023/07/23 01:21:28;;;;;;;8.85;5.20;;;;;;;;;;5113375;28;20027;-61
2023/07/23 01:23:53;;;;;;;7.63;5.25;;;;;;;;;;5100791;28;20028;-61
2023/07/23 01:26:20;;;;;;;9.60;5.40;;;;;;;;;;5112781;28;20037;-61
2023/07/23 01:28:45;;;;;;;9.38;5.30;;;;;;;;;;5106709;28;20024;-61
2023/07/23 01:31:12;;;;;;;6.60;4.87;;;;;;;;;;5107449;28;20022;-61
2023/07/23 01:33:38;;;;;;;8.50;5.05;;;;;;;;;;5113707;28;20270;-61
2023/07/23 01:36:03;;;;;;;8.40;5.10;;;;;;;;;;5105248;28;20023;-61
2023/07/23 01:38:29;;;;;;;6.53;5.25;;;;;;;;;;5106457;28;20032;-61
2023/07/23 01:40:55;;;;;;;10.13;4.95;;;;;;;;;;5093540;28;20016;-62
2023/07/23 01:43:21;;;;;;;9.45;5.18;;;;;;;;;;5093848;28;20078;-62
2023/07/23 01:45:46;;;;;;;6.03;4.82;;;;;;;;;;5102774;28;20418;-62
2023/07/23 01:48:12;;;;;;;5.20;4.63;;;;;;;;;;5092302;28;20111;-61
2023/07/23 01:50:38;;;;;;;8.15;4.78;;;;;;;;;;5093467;28;20031;-61
2023/07/23 01:53:03;;;;;;;7.50;4.60;;;;;;;;;;5104930;28;20039;-61
2023/07/23 01:55:28;;;;;;;7.90;5.07;;;;;;;;;;5101795;28;20028;-62
2023/07/23 01:57:54;;;;;;;13.93;5.00;;;;;;;;;;5093387;28;20458;-61
2023/07/23 02:00:19;;;;;;;5.40;4.10;;;;;;;;;;5094259;28;20570;-61
2023/07/23 02:02:44;;;;;;;6.13;4.28;;;;;;;;;;5093956;28;20259;-61
2023/07/23 02:05:09;;;;;;;5.97;4.40;;;;;;;;;;5098445;28;20473;-61
2023/07/23 02:07:35;;;;;;;8.23;4.75;;;;;;;;;;5093650;28;20130;-61
2023/07/23 02:10:00;;;;;;;6.07;4.28;;;;;;;;;;5093354;28;20062;-61
2023/07/23 02:12:25;;;;;;;8.38;4.30;;;;;;;;;;5092996;28;20061;-62
2023/07/23 02:14:50;;;;;;;4.23;3.83;;;;;;;;;;5099406;28;20024;-61
2023/07/23 02:17:16;;;;;;;7.80;4.80;;;;;;;;;;5100220;28;20270;-61
2023/07/23 02:19:41;;;;;;;5.10;3.97;;;;;;;;;;5094912;28;20089;-61
2023/07/23 02:22:06;;;;;;;7.25;4.53;;;;;;;;;;5106413;28;20338;-61
2023/07/23 02:24:32;;;;;;;8.00;4.70;;;;;;;;;;5094450;28;20458;-62
2023/07/23 02:26:57;;;;;;;5.85;3.67;;;;;;;;;;5092895;28;20262;-62
2023/07/23 02:29:22;;;;;;;7.20;4.20;;;;;;;;;;5094339;28;20099;-62
2023/07/23 02:31:48;;;;;;;5.60;3.97;;;;;;;;;;5094161;28;20273;-62
2023/07/23 02:34:13;;;;;;;8.13;4.00;;;;;;;;;;5109225;28;20023;-63
2023/07/23 02:36:38;;;;;;;6.13;3.25;;;;;;;;;;5097678;28;20032;-62
2023/07/23 02:39:04;;;;;;;5.10;3.23;;;;;;;;;;5102946;28;20016;-62
2023/07/23 02:41:29;;;;;;;6.50;3.43;;;;;;;;;;5097413;28;20267;-62
2023/07/23 02:43:54;;;;;;;7.10;4.18;;;;;;;;;;5097319;28;20301;-61
2023/07/23 02:46:20;;;;;;;4.60;3.20;;;;;;;;;;5097625;28;20508;-61
2023/07/23 02:48:45;;;;;;;9.05;3.83;;;;;;;;;;5099080;28;20273;-62
2023/07/23 02:51:10;;;;;;;6.45;3.22;;;;;;;;;;5101411;28;20500;-61
2023/07/23 02:53:35;;;;;;;5.20;2.77;;;;;;;;;;5092932;28;20094;-62
2023/07/23 02:56:01;;;;;;;4.95;3.45;;;;;;;;;;5091329;28;20373;-62
2023/07/23 02:58:26;;;;;;;5.78;3.28;;;;;;;;;;5092811;28;20023;-62
2023/07/23 03:00:52;;;;;;;5.25;3.10;;;;;;;;;;5102219;28;20024;-62
2023/07/23 03:03:17;;;;;;;10.90;3.42;;;;;;;;;;5092772;28;20032;-62
2023/07/23 03:05:42;;;;;;;7.83;3.60;;;;;;;;;;5092927;28;20024;-62
2023/07/23 03:08:08;;;;;;;5.47;3.53;;;;;;;;;;5093190;28;20678;-63
2023/07/23 03:10:33;;;;;;;6.40;3.17;;;;;;;;;;5095501;28;20099;-63
2023/07/23 03:12:58;;;;;;;5.57;3.28;;;;;;;;;;5112785;28;20349;-62
2023/07/23 03:15:23;;;;;;;4.77;3.20;;;;;;;;;;5112570;28;20072;-62
2023/07/23 03:17:50;;;;;;;7.70;3.90;;;;;;;;;;5102245;28;20606;-61
2023/07/23 03:20:16;;;;;;;7.13;3.33;;;;;;;;;;5092173;28;20093;-61
2023/07/23 03:22:41;;;;;;;6.07;3.40;;;;;;;;;;5093681;28;20070;-62
2023/07/23 03:25:07;;;;;;;5.05;2.97;;;;;;;;;;5095407;28;20051;-62
2023/07/23 03:27:32;;;;;;;6.05;3.58;;;;;;;;;;5096695;28;20116;-62
2023/07/23 03:29:57;;;;;;;5.40;3.13;;;;;;;;;;5095649;28;20293;-62
2023/07/23 03:32:23;;;;;;;6.53;3.27;;;;;;;;;;5093847;28;20270;-62
2023/07/23 03:34:48;;;;;;;8.60;3.15;;;;;;;;;;5094433;28;20268;-62
2023/07/23 03:37:13;;;;;;;6.05;2.85;;;;;;;;;;5093211;28;20020;-62
2023/07/23 03:39:38;;;;;;;7.47;3.07;;;;;;;;;;5094304;28;20412;-62
2023/07/23 03:42:04;;;;;;;3.83;2.57;;;;;;;;;;5097879;28;20274;-63
2023/07/23 03:44:29;;;;;;;7.20;2.80;;;;;;;;;;5109921;28;20313;-63
2023/07/23 03:47:05;;;;;;;5.45;2.92;;;;;;;;;;5099480;28;20401;-63
2023/07/23 03:49:30;;;;;;;4.22;2.65;;;;;;;;;;5099598;28;20019;-63
2023/07/23 03:51:55;;;;;;;5.95;2.42;;;;;;;;;;5108532;28;20424;-63
2023/07/23 03:54:21;;;;;;;4.88;2.90;;;;;;;;;;5108204;28;20012;-63
2023/07/23 03:56:46;;;;;;;10.57;2.60;;;;;;;;;;5106643;28;20063;-63
2023/07/23 03:59:11;;;;;;;5.22;2.63;;;;;;;;;;5109360;28;20488;-63
2023/07/23 04:01:36;;;;;;;6.55;2.92;;;;;;;;;;5106591;28;20046;-62
2023/07/23 04:04:02;;;;;;;5.27;3.07;;;;;;;;;;5111461;28;20031;-62
2023/07/23 04:06:27;;;;;;;5.80;2.67;;;;;;;;;;5108005;28;20301;-63
2023/07/23 04:08:52;;;;;;;4.63;2.88;;;;;;;;;;5108624;28;20051;-63
2023/07/23 04:11:17;;;;;;;6.10;2.73;;;;;;;;;;5101232;28;20039;-62
2023/07/23 04:13:43;;;;;;;8.52;2.90;;;;;;;;;;5098622;28;20348;-62
2023/07/23 04:16:09;;;;;;;7.23;2.70;;;;;;;;;;5102973;28;20020;-61
2023/07/23 04:18:45;;;;;;;4.72;2.95;;;;;;;;;;5107338;28;20296;-61
2023/07/23 04:21:10;;;;;;;5.50;2.40;;;;;;;;;;5093659;28;20020;-61
2023/07/23 04:23:35;;;;;;;6.33;3.03;;;;;;;;;;5102947;28;20038;-62
2023/07/23 04:26:00;;;;;;;4.53;2.73;;;;;;;;;;5107233;28;20372;-62
2023/07/23 04:28:26;;;;;;;6.17;3.07;;;;;;;;;;5103891;28;20307;-64
2023/07/23 04:30:51;;;;;;;7.45;2.75;;;;;;;;;;5102487;28;20339;-62
2023/07/23 04:33:17;;;;;;;5.70;2.57;;;;;;;;;;5081964;28;20032;-63
2023/07/23 04:35:42;;;;;;;10.20;2.70;;;;;;;;;;5099367;28;20361;-63
2023/07/23 04:38:08;;;;;;;4.07;2.10;;;;;;;;;;5100490;28;20016;-63
2023/07/23 04:40:35;;;;;;;5.53;2.50;;;;;;;;;;5099106;28;20274;-62
2023/07/23 04:43:00;;;;;;;6.15;2.95;;;;;;;;;;5100368;28;20024;-62
2023/07/23 04:45:25;;;;;;;4.38;2.83;;;;;;;;;;5098437;28;20073;-62
2023/07/23 04:47:50;;;;;;;8.53;2.40;;;;;;;;;;5102154;28;20076;-62
2023/07/23 04:50:16;;;;;;;7.27;2.60;;;;;;;;;;5108345;28;20806;-62
2023/07/23 04:52:41;;;;;;;4.37;2.47;;;;;;;;;;5107093;28;20597;-63
2023/07/23 04:55:08;;;;;;;4.70;2.57;;;;;;;;;;5109045;28;20269;-62
2023/07/23 04:57:33;;;;;;;4.60;2.33;;;;;;;;;;5110657;28;20266;-62
2023/07/23 04:59:58;;;;;;;7.65;2.33;;;;;;;;;;5097935;28;20226;-63
2023/07/23 05:02:24;;;;;;;6.57;3.00;;;;;;;;;;5109446;28;20023;-63
2023/07/23 05:04:49;;;;;;;5.53;3.10;;;;;;;;;;5110410;28;20027;-62
2023/07/23 05:07:14;;;;;;;4.32;2.30;;;;;;;;;;5100835;28;20298;-63
2023/07/23 05:09:41;;;;;;;7.05;2.47;;;;;;;;;;5104812;28;20030;-64
2023/07/23 05:12:07;;;;;;;4.07;2.60;;;;;;;;;;5111127;28;20031;-63
2023/07/23 05:14:34;;;;;;;5.28;2.00;;;;;;;;;;5094639;28;20020;-63
2023/07/23 05:16:59;;;;;;;5.07;2.42;;;;;;;;;;5097490;28;20073;-63
2023/07/23 05:19:25;;;;;;;5.13;2.40;;;;;;;;;;5104315;28;20016;-64
2023/07/23 05:21:50;;;;;;;6.85;2.55;;;;;;;;;;5098840;28;20356;-63
2023/07/23 05:24:15;;;;;;;5.40;2.15;;;;;;;;;;5094923;28;20024;-64
2023/07/23 05:26:40;;;;;;;4.60;2.47;;;;;;;;;;5096182;28;20016;-64
2023/07/23 05:29:06;;;;;;;3.58;2.15;;;;;;;;;;5095381;28;20285;-64
2023/07/23 05:31:31;;;;;;;3.03;2.10;;;;;;;;;;5100270;28;20032;-64
2023/07/23 05:33:56;;;;;;;9.20;2.67;;;;;;;;;;5104482;28;20036;-64
2023/07/23 05:36:21;;;;;;;4.23;2.30;;;;;;;;;;5095730;28;20289;-64
2023/07/23 05:38:47;;;;;;;4.38;2.38;;;;;;;;;;5101256;28;20266;-63
2023/07/23 05:41:12;;;;;;;4.18;2.42;;;;;;;;;;5108604;28;20390;-63
2023/07/23 05:43:37;;;;;;;6.00;2.58;;;;;;;;;;5107498;28;20031;-64
2023/07/23 05:46:03;;;;;;;18.73;2.17;;;;;;;;;;5109184;28;20024;-63
2023/07/23 05:48:28;;;;;;;4.05;2.40;;;;;;;;;;5097699;28;20822;-62
2023/07/23 05:50:54;;;;;;;4.70;2.80;;;;;;;;;;5114061;28;20031;-63
2023/07/23 05:53:19;;;;;;;10.48;2.88;;;;;;;;;;5112710;28;20281;-62
2023/07/23 05:55:44;;;;;;;4.63;2.70;;;;;;;;;;5110887;28;20047;-62
2023/07/23 05:58:09;;;;;;;4.77;2.53;;;;;;;;;;5109769;28;20281;-63
2023/07/23 06:00:35;;;;;;;5.53;2.47;;;;;;;;;;5112388;28;20299;-63
2023/07/23 06:03:00;;;;;;;5.03;2.30;;;;;;;;;;5099406;28;20055;-63
2023/07/23 06:05:25;;;;;;;6.20;3.20;;;;;;;;;;5105961;28;20055;-63
2023/07/23 06:07:50;;;;;;;4.93;2.37;;;;;;;;;;5107128;28;20767;-63
2023/07/23 06:10:16;;;;;;;6.53;2.77;;;;;;;;;;5107403;28;20289;-63
2023/07/23 06:12:41;;;;;;;4.40;2.65;;;;;;;;;;5101014;28;20395;-62
2023/07/23 06:15:06;;;;;;;4.60;2.72;;;;;;;;;;5100050;28;20074;-63
2023/07/23 06:17:32;;;;;;;5.70;2.78;;;;;;;;;;5093934;28;20020;-63
2023/07/23 06:19:57;;;;;;;4.57;2.88;;;;;;;;;;5094363;28;20103;-63
2023/07/23 06:22:22;;;;;;;3.88;2.35;;;;;;;;;;5093997;28;20020;-63
2023/07/23 06:24:47;;;;;;;8.07;2.78;;;;;;;;;;5094478;28;20032;-63
2023/07/23 06:27:13;;;;;;;8.82;3.78;;;;;;;;;;5113236;28;20023;-62
2023/07/23 06:29:38;;;;;;;3.85;2.42;;;;;;;;;;5100442;28;20034;-63
2023/07/23 06:32:04;;;;;;;4.82;3.30;;;;;;;;;;5094420;28;20058;-62
2023/07/23 06:34:29;;;;;;;6.53;3.17;;;;;;;;;;5094207;28;20382;-63
2023/07/23 06:36:54;;;;;;;5.47;3.33;;;;;;;;;;5102465;28;20455;-63
2023/07/23 06:39:20;;;;;;;4.87;3.07;;;;;;;;;;5094254;28;20024;-63
2023/07/23 06:41:46;;;;;;;3.83;2.67;;;;;;;;;;5094231;28;20290;-63
2023/07/23 06:44:11;;;;;;;5.13;3.20;;;;;;;;;;5106198;28;20020;-63
2023/07/23 06:46:36;;;;;;;8.03;3.37;;;;;;;;;;5106150;28;20032;-63
2023/07/23 06:49:01;;;;;;;6.40;3.38;;;;;;;;;;5098997;28;20285;-63
2023/07/23 06:51:27;;;;;;;7.53;3.03;;;;;;;;;;5099756;28;20032;-63
2023/07/23 06:53:52;;;;;;;4.97;2.83;;;;;;;;;;5092606;28;20020;-63
2023/07/23 06:56:19;;;;;;;7.15;3.25;;;;;;;;;;5092876;28;20020;-63
2023/07/23 06:58:45;;;;;;;5.05;3.60;;;;;;;;;;5092473;28;20032;-63
2023/07/23 07:01:10;;;;;;;7.78;3.30;;;;;;;;;;5092170;28;20035;-62
2023/07/23 07:03:36;;;;;;;5.35;3.72;;;;;;;;;;5100037;28;20039;-62
2023/07/23 07:06:01;;;;;;;5.53;3.47;;;;;;;;;;5112261;28;20042;-62
2023/07/23 07:08:28;;;;;;;6.38;3.58;;;;;;;;;;5112055;28;20767;-61
2023/07/23 07:10:58;;;;;;;6.10;3.70;;;;;;;;;;5098287;28;20043;-61
2023/07/23 07:13:23;;;;;;;5.10;3.42;;;;;;;;;;5111615;28;20342;-62
2023/07/23 07:15:48;;;;;;;5.40;3.28;;;;;;;;;;5112587;28;20020;-62
2023/07/23 07:18:13;;;;;;;5.10;3.53;;;;;;;;;;5100644;28;20049;-63
2023/07/23 07:20:39;;;;;;;6.83;4.07;;;;;;;;;;5105857;28;20304;-62
2023/07/23 07:23:04;;;;;;;8.13;3.83;;;;;;;;;;5110326;28;20270;-62
2023/07/23 07:25:29;;;;;;;5.17;3.73;;;;;;;;;;5096418;28;20482;-62
2023/07/23 07:27:54;;;;;;;7.60;4.43;;;;;;;;;;5102166;28;20655;-62
2023/07/23 07:30:20;;;;;;;6.80;3.77;;;;;;;;;;5100024;28;20052;-60
2023/07/23 07:32:45;;;;;;;6.27;4.73;;;;;;;;;;5104393;28;20277;-59
2023/07/23 07:35:10;;;;;;;7.93;4.27;;;;;;;;;;5099413;28;20289;-59
2023/07/23 07:37:35;;;;;;;6.77;4.20;;;;;;;;;;5103935;28;20266;-60
2023/07/23 07:40:00;;;;;;;6.67;4.13;;;;;;;;;;5104384;28;20270;-59
2023/07/23 07:42:26;;;;;;;6.67;4.33;;;;;;;;;;5105267;28;20854;-59
2023/07/23 07:44:52;;;;;;;5.82;4.55;;;;;;;;;;5093300;28;21027;-59
2023/07/23 07:47:17;;;;;;;9.77;4.53;;;;;;;;;;5097235;28;20482;-61
2023/07/23 07:49:42;;;;;;;5.75;4.10;;;;;;;;;;5099245;28;20457;-61
2023/07/23 07:52:08;;;;;;;5.65;4.38;;;;;;;;;;5106588;28;20378;-59
2023/07/23 07:54:35;;;;;;;6.83;5.03;;;;;;;;;;5111720;28;20102;-60
2023/07/23 07:57:00;;;;;;;8.23;5.07;;;;;;;;;;5108321;28;20327;-59
2023/07/23 07:59:26;;;;;;;9.13;4.72;;;;;;;;;;5097057;28;20452;-59
2023/07/23 08:01:51;;;;;;;6.47;4.88;;;;;;;;;;5092581;28;20031;-60
2023/07/23 08:04:17;;;;;;;7.40;5.00;;;;;;;;;;5092892;28;20053;-59
2023/07/23 08:06:42;;;;;;;8.48;5.30;;;;;;;;;;5107557;28;20015;-61
2023/07/23 08:09:08;;;;;;;7.28;5.47;;;;;;;;;;5104001;28;20024;-60
2023/07/23 08:11:34;;;;;;;6.57;5.65;;;;;;;;;;5090777;28;20036;-60
2023/07/23 08:14:00;;;;;;;12.70;5.68;;;;;;;;;;5109087;28;20026;-60
2023/07/23 08:16:25;;;;;;;7.68;5.78;;;;;;;;;;5111027;28;20106;-60
2023/07/23 08:18:51;;;;;;;8.50;5.68;;;;;;;;;;5110313;28;20019;-60
2023/07/23 08:21:17;;;;;;;10.00;6.20;;;;;;;;;;5110650;28;20074;-60
2023/07/23 08:23:42;;;;;;;6.80;5.20;;;;;;;;;;5110599;28;20393;-60
2023/07/23 08:26:08;;;;;;;7.88;5.35;;;;;;;;;;5107355;28;20028;-60
2023/07/23 08:28:37;;;;;;;7.85;4.97;;;;;;;;;;5100495;28;20454;-60
2023/07/23 08:31:03;;;;;;;7.80;5.75;;;;;;;;;;5114309;28;20065;-61
2023/07/23 08:33:29;;;;;;;9.40;5.78;;;;;;;;;;5100230;28;20027;-59
2023/07/23 08:35:55;;;;;;;6.18;4.88;;;;;;;;;;5101933;28;20017;-60
2023/07/23 08:38:20;;;;;;;7.97;5.50;;;;;;;;;;5099792;28;20033;-59
2023/07/23 08:40:46;;;;;;;11.68;5.32;;;;;;;;;;5101952;28;20078;-60
2023/07/23 08:43:29;;;;;;;9.38;6.25;;;;;;;;;;5094626;28;20035;-59
2023/07/23 08:45:54;;;;;;;7.70;5.63;;;;;;;;;;5108082;28;20031;-60
2023/07/23 08:48:20;;;;;;;6.57;5.43;;;;;;;;;;5094675;28;20024;-60
2023/07/23 08:50:49;;;;;;;6.45;5.28;;;;;;;;;;5097497;28;20553;-60
2023/07/23 08:53:14;;;;;;;7.63;4.70;;;;;;;;;;5107821;28;20115;-60
2023/07/23 08:55:41;;;;;;;9.63;5.38;;;;;;;;;;5096111;28;20095;-60
2023/07/23 08:58:06;;;;;;;6.72;4.80;;;;;;;;;;5109884;28;20031;-60
2023/07/23 09:00:32;;;;;;;8.68;5.22;;;;;;;;;;5096949;28;20016;-60
2023/07/23 09:03:03;;;;;;;7.30;5.15;;;;;;;;;;5100432;28;20016;-60
2023/07/23 09:05:28;;;;;;;6.22;4.28;;;;;;;;;;5106581;28;20386;-60
2023/07/23 09:07:54;;;;;;;7.25;5.03;;;;;;;;;;5099706;28;20012;-60
2023/07/23 09:10:19;;;;;;;6.67;4.33;;;;;;;;;;5108993;28;20423;-61
2023/07/23 09:12:44;;;;;;;5.30;3.63;;;;;;;;;;5110184;28;20297;-61
2023/07/23 09:15:11;;;;;;;5.63;4.20;;;;;;;;;;5109751;28;20273;-59
2023/07/23 09:17:37;;;;;;;5.03;3.58;;;;;;;;;;5113428;28;20019;-59
2023/07/23 09:20:02;;;;;;;4.67;3.30;;;;;;;;;;5102560;28;20042;-59
2023/07/23 09:22:32;;;;;;;5.68;3.38;;;;;;;;;;5108791;28;20269;-60
2023/07/23 09:25:00;;;;;;;8.43;3.97;;;;;;;;;;5104541;28;20418;-60
2023/07/23 09:27:33;;;;;;;9.80;4.20;;;;;;;;;;5095996;28;20115;-59
2023/07/23 09:29:58;;;;;;;6.13;3.13;;;;;;;;;;5101939;28;20054;-60
2023/07/23 09:32:25;;;;;;;6.85;3.58;;;;;;;;;;5097563;28;20398;-60
2023/07/23 09:34:50;;;;;;;5.70;3.53;;;;;;;;;;5106292;28;20027;-61
2023/07/23 09:37:17;;;;;;;4.90;3.50;;;;;;;;;;5111581;28;20050;-61
2023/07/23 09:39:42;;;;;;;5.93;3.58;;;;;;;;;;5112846;28;20027;-61
2023/07/23 09:42:07;;;;;;;6.03;4.30;;;;;;;;;;5111063;28;20478;-60
2023/07/23 09:44:33;;;;;;;7.38;3.85;;;;;;;;;;5105123;28;20706;-60
2023/07/23 09:46:58;;;;;;;5.28;4.22;;;;;;;;;;5109307;28;20097;-60
2023/07/23 09:49:27;;;;;;;8.90;4.38;;;;;;;;;;5093601;28;20494;-60
2023/07/23 09:51:53;;;;;;;5.20;3.70;;;;;;;;;;5105170;28;20032;-62
2023/07/23 09:54:19;;;;;;;5.35;3.75;;;;;;;;;;5111126;28;20023;-61
2023/07/23 09:56:45;;;;;;;5.53;3.85;;;;;;;;;;5102610;28;20371;-61
2023/07/23 09:59:11;;;;;;;9.93;3.88;;;;;;;;;;5106199;28;20034;-60
2023/07/23 10:01:36;;;;;;;4.88;3.10;;;;;;;;;;5113115;28;20031;-60
2023/07/23 10:04:02;;;;;;;3.67;2.55;;;;;;;;;;5104342;28;20042;-60
2023/07/23 10:06:28;;;;;;;5.50;2.90;;;;;;;;;;5112241;28;20513;-61
2023/07/23 10:08:54;;;;;;;5.13;2.78;;;;;;;;;;5102879;28;20020;-60
2023/07/23 10:11:19;;;;;;;4.55;2.80;;;;;;;;;;5092819;28;20684;-61
2023/07/23 10:13:47;;;;;;;3.13;2.17;;;;;;;;;;5099008;28;20031;-61
2023/07/23 10:16:24;;;;;;;3.78;2.72;;;;;;;;;;5099115;28;20032;-61
2023/07/23 10:18:50;;;;;;;4.55;2.80;;;;;;;;;;5096878;28;20039;-60
2023/07/23 10:21:16;;;;;;;2.90;1.92;;;;;;;;;;5076936;28;20024;-61
2023/07/23 10:23:41;;;;;;;3.60;2.60;;;;;;;;;;5097017;28;20039;-60
2023/07/23 10:26:20;;;;;;;4.75;2.95;;;;;;;;;;5093815;28;20036;-60
2023/07/23 10:28:45;;;;;;;3.60;2.50;;;;;;;;;;5094110;28;20043;-61
2023/07/23 10:31:27;;;;;;;5.97;2.70;;;;;;;;;;5106198;28;20112;-60
2023/07/23 10:33:53;;;;;;;3.72;2.17;;;;;;;;;;5102869;28;20030;-60
2023/07/23 10:36:19;;;;;;;3.97;1.85;;;;;;;;;;5106445;28;20106;-61
2023/07/23 10:38:46;;;;;;;5.82;2.10;;;;;;;;;;5109297;28;20019;-61
2023/07/23 10:41:12;;;;;;;4.65;2.20;;;;;;;;;;5110798;28;20114;-61
2023/07/23 10:43:38;;;;;;;2.70;1.95;;;;;;;;;;5108938;28;20149;-61
2023/07/23 10:46:04;;;;;;;3.75;2.35;;;;;;;;;;5107527;28;20070;-61
2023/07/23 10:48:45;;;;;;;4.93;2.70;;;;;;;;;;5097647;28;20032;-61
2023/07/23 10:51:13;;;;;;;4.95;2.80;;;;;;;;;;5091367;28;20028;-62
2023/07/23 10:53:55;;;;;;;4.57;2.20;;;;;;;;;;5096168;28;20024;-61
2023/07/23 10:56:22;;;;;;;3.75;2.70;;;;;;;;;;5097992;28;20036;-60
2023/07/23 10:58:47;;;;;;;5.55;2.55;;;;;;;;;;5110597;28;20030;-59
2023/07/23 11:01:13;;;;;;;3.50;2.58;;;;;;;;;;5109905;28;20024;-60
2023/07/23 11:03:43;;;;;;;4.20;2.67;;;;;;;;;;5107694;28;20420;-60
2023/07/23 11:06:23;;;;;;;5.50;2.47;;;;;;;;;;5094174;28;20358;-61
2023/07/23 11:08:49;;;;;;;8.65;2.80;;;;;;;;;;5102158;28;20028;-61
2023/07/23 11:11:14;;;;;;;3.27;2.33;;;;;;;;;;5076695;28;20030;-64
2023/07/23 11:13:40;;;;;;;3.92;2.60;;;;;;;;;;5104630;28;20273;-61
2023/07/23 11:16:05;;;;;;;4.45;2.78;;;;;;;;;;5110851;28;20439;-61
2023/07/23 11:18:32;;;;;;;4.32;2.72;;;;;;;;;;5107376;28;20428;-60
2023/07/23 11:20:59;;;;;;;3.35;2.38;;;;;;;;;;5109544;28;20047;-60
2023/07/23 11:23:25;;;;;;;3.38;2.13;;;;;;;;;;5110391;28;20023;-61
2023/07/23 11:25:51;;;;;;;3.83;2.03;;;;;;;;;;5109202;28;20034;-60
2023/07/23 11:28:17;;;;;;;4.78;2.30;;;;;;;;;;5110075;28;20024;-62
2023/07/23 11:30:42;;;;;;;4.07;2.05;;;;;;;;;;5102764;28;20028;-61
2023/07/23 11:33:08;;;;;;;3.45;2.10;;;;;;;;;;5107862;28;20381;-60
2023/07/23 11:35:34;;;;;;;4.13;1.90;;;;;;;;;;5099355;28;20476;-62
2023/07/23 11:38:02;;;;;;;3.45;1.80;;;;;;;;;;5097493;28;20039;-61
2023/07/23 11:40:27;;;;;;;3.38;1.60;;;;;;;;;;5091865;28;20036;-62
2023/07/23 11:42:53;;;;;;;3.58;2.30;;;;;;;;;;5103548;28;20020;-61
2023/07/23 11:45:18;;;;;;;3.85;2.15;;;;;;;;;;5103874;28;20371;-61
2023/07/23 11:47:51;;;;;;;2.92;1.98;;;;;;;;;;5101294;28;20023;-61
2023/07/23 11:50:16;;;;;;;3.88;1.65;;;;;;;;;;5093491;28;20012;-62
2023/07/23 11:52:42;;;;;;;3.40;2.03;;;;;;;;;;5100879;28;20327;-62
2023/07/23 11:55:24;;;;;;;3.40;1.80;;;;;;;;;;5099261;28;20062;-62
2023/07/23 11:57:50;;;;;;;3.45;1.95;;;;;;;;;;5101561;28;20026;-62
2023/07/23 12:00:22;;;;;;;4.82;2.03;;;;;;;;;;5115032;28;20051;-62
2023/07/23 12:02:47;;;;;;;2.65;1.60;;;;;;;;;;5101307;28;20076;-62
2023/07/23 12:05:14;;;;;;;2.70;1.43;;;;;;;;;;5109161;28;20105;-61
2023/07/23 12:07:39;;;;;;;3.10;1.48;;;;;;;;;;5102226;28;20278;-61
2023/07/23 12:10:05;;;;;;;4.03;1.95;;;;;;;;;;5103825;28;20053;-61
2023/07/23 12:12:32;;;;;;;3.22;1.65;;;;;;;;;;5110398;28;20019;-63
2023/07/23 12:15:01;;;;;;;3.35;2.20;;;;;;;;;;5106313;28;20876;-63
2023/07/23 12:17:27;;;;;;;3.67;1.90;;;;;;;;;;5107570;28;20055;-64
2023/07/23 12:19:52;;;;;;;4.75;2.47;;;;;;;;;;5112320;28;20051;-63
2023/07/23 12:22:17;;;;;;;5.30;1.90;;;;;;;;;;5109031;28;20030;-63
2023/07/23 12:24:43;;;;;;;3.20;1.77;;;;;;;;;;5085139;28;21159;-63
2023/07/23 12:27:08;;;;;;;3.27;2.13;;;;;;;;;;5104412;28;21454;-64
2023/07/23 12:29:38;;;;;;;3.50;1.97;;;;;;;;;;5109018;28;20332;-64
2023/07/23 12:32:09;;;;;;;3.83;2.20;;;;;;;;;;5109758;28;20280;-60
2023/07/23 12:34:34;;;;;;;3.78;2.30;;;;;;;;;;5105790;28;20111;-63
2023/07/23 12:36:59;;;;;;;3.80;2.13;;;;;;;;;;5102926;28;20107;-62
2023/07/23 12:39:24;;;;;;;4.23;1.90;;;;;;;;;;5100427;28;20269;-64
2023/07/23 12:41:50;;;;;;;2.97;1.90;;;;;;;;;;5100041;28;20274;-63
2023/07/23 12:44:15;;;;;;;5.30;2.50;;;;;;;;;;5110982;28;20023;-63
2023/07/23 12:46:40;;;;;;;4.50;2.75;;;;;;;;;;5108484;28;20294;-63
2023/07/23 12:49:06;;;;;;;3.95;2.35;;;;;;;;;;5100998;28;20493;-64
2023/07/23 12:51:31;;;;;;;3.90;2.67;;;;;;;;;;5114134;28;20023;-63
2023/07/23 12:53:56;;;;;;;4.47;3.15;;;;;;;;;;5114572;28;20023;-62
2023/07/23 12:56:21;;;;;;;5.70;2.65;;;;;;;;;;5102679;28;20060;-62
2023/07/23 12:58:47;;;;;;;10.50;3.30;;;;;;;;;;5107597;28;20042;-62
2023/07/23 13:01:12;;;;;;;7.70;3.13;;;;;;;;;;5094929;28;20035;-62
2023/07/23 13:03:37;;;;;;;4.20;2.97;;;;;;;;;;5106996;28;20747;-66
2023/07/23 13:06:03;;;;;;;7.53;3.13;;;;;;;;;;5104365;28;20347;-62
2023/07/23 13:08:28;;;;;;;6.60;3.55;;;;;;;;;;5107863;28;20024;-62
2023/07/23 13:10:53;;;;;;;4.65;2.88;;;;;;;;;;5110266;28;20034;-62
2023/07/23 13:13:19;;;;;;;4.18;2.65;;;;;;;;;;5109708;28;20034;-62
2023/07/23 13:15:44;;;;;;;4.45;2.88;;;;;;;;;;5104803;28;20076;-64
2023/07/23 13:18:09;;;;;;;7.77;3.27;;;;;;;;;;5110126;28;20470;-62
2023/07/23 13:20:34;;;;;;;6.53;3.10;;;;;;;;;;5106480;28;20754;-63
2023/07/23 13:23:00;;;;;;;5.73;2.97;;;;;;;;;;5107287;28;20269;-63
2023/07/23 13:25:25;;;;;;;4.35;2.75;;;;;;;;;;5109296;28;20298;-64
2023/07/23 13:27:50;;;;;;;5.20;2.78;;;;;;;;;;5113360;28;20045;-65
2023/07/23 13:30:16;;;;;;;4.40;2.80;;;;;;;;;;5096462;28;20020;-64
2023/07/23 13:32:41;;;;;;;4.30;2.50;;;;;;;;;;5109257;28;20288;-65
2023/07/23 13:35:06;;;;;;;3.50;2.38;;;;;;;;;;5113479;28;20305;-64
2023/07/23 13:37:32;;;;;;;4.18;2.70;;;;;;;;;;5109657;28;20474;-64
2023/07/23 13:39:57;;;;;;;4.70;3.10;;;;;;;;;;5108043;28;20026;-64
2023/07/23 13:42:22;;;;;;;6.77;2.97;;;;;;;;;;5109362;28;20019;-64
2023/07/23 13:44:47;;;;;;;5.75;3.13;;;;;;;;;;5107461;28;20270;-63
2023/07/23 13:47:13;;;;;;;4.50;2.97;;;;;;;;;;5103625;28;20020;-63
2023/07/23 13:49:38;;;;;;;4.63;2.95;;;;;;;;;;5098655;28;20270;-64
2023/07/23 13:52:04;;;;;;;5.65;3.65;;;;;;;;;;5111408;28;20055;-64
2023/07/23 13:54:30;;;;;;;4.50;2.72;;;;;;;;;;5113854;28;20039;-63
2023/07/23 13:56:56;;;;;;;4.95;3.00;;;;;;;;;;5113095;28;20543;-64
2023/07/23 13:59:21;;;;;;;6.22;2.88;;;;;;;;;;5112913;28;20028;-63
2023/07/23 14:01:46;;;;;;;4.95;2.90;;;;;;;;;;5107830;28;20020;-64
2023/07/23 14:04:11;;;;;;;4.95;3.10;;;;;;;;;;5101017;28;20410;-64
2023/07/23 14:06:37;;;;;;;5.28;3.00;;;;;;;;;;5098267;28;20028;-64
2023/07/23 14:09:02;;;;;;;6.50;3.57;;;;;;;;;;5099087;28;20020;-64
2023/07/23 14:11:27;;;;;;;3.95;2.78;;;;;;;;;;5111251;28;20262;-63
2023/07/23 14:13:53;;;;;;;6.75;3.10;;;;;;;;;;5104676;28;20027;-63
2023/07/23 14:16:20;;;;;;;3.83;2.58;;;;;;;;;;5108215;28;20052;-63
2023/07/23 14:18:45;;;;;;;5.05;3.42;;;;;;;;;;5105002;28;20027;-63
2023/07/23 14:21:11;;;;;;;3.13;2.45;;;;;;;;;;5097121;28;20016;-64
2023/07/23 14:23:36;;;;;;;7.53;2.90;;;;;;;;;;5107676;28;20051;-63
2023/07/23 14:26:01;;;;;;;5.70;2.90;;;;;;;;;;5102602;28;20099;-64
2023/07/23 14:28:27;;;;;;;4.18;2.72;;;;;;;;;;5103843;28;20277;-65
2023/07/23 14:30:52;;;;;;;5.80;2.72;;;;;;;;;;5099636;28;20467;-65
2023/07/23 14:33:19;;;;;;;5.55;3.58;;;;;;;;;;5106945;28;20039;-63
2023/07/23 14:35:44;;;;;;;7.57;3.58;;;;;;;;;;5096091;28;20113;-65